createdAt,value
2023-04-27T00:00:00.439Z,9.90
2023-04-27T00:02:28.269Z,9.90
2023-04-27T00:04:56.591Z,9.90
2023-04-27T00:07:26.066Z,9.90
2023-04-27T00:09:53.881Z,9.60
2023-04-27T00:12:22.892Z,9.70
2023-04-27T00:14:50.826Z,9.80
2023-04-27T00:17:18.557Z,9.80
2023-04-27T00:19:47.425Z,9.80
2023-04-27T00:22:15.224Z,9.80
2023-04-27T00:24:42.904Z,9.70
2023-04-27T00:27:13.303Z,9.70
2023-04-27T00:29:44.046Z,9.70
2023-04-27T00:32:11.991Z,9.60
2023-04-27T00:34:39.891Z,9.60
2023-04-27T00:37:07.651Z,9.60
2023-04-27T00:39:35.960Z,9.60
2023-04-27T00:42:03.681Z,9.60
2023-04-27T00:44:31.441Z,9.60
2023-04-27T00:47:00.790Z,9.60
2023-04-27T00:49:28.722Z,9.60
2023-04-27T00:51:57.173Z,9.60
2023-04-27T00:54:27.131Z,9.60
2023-04-27T00:56:55.177Z,9.60
2023-04-27T00:59:23.199Z,9.60
2023-04-27T01:01:53.468Z,9.50
2023-04-27T01:04:23.354Z,9.50
2023-04-27T01:06:52.272Z,9.40
2023-04-27T01:09:20.039Z,9.40
2023-04-27T01:11:50.896Z,9.20
2023-04-27T01:14:18.619Z,9.00
2023-04-27T01:16:47.348Z,9.00
2023-04-27T01:19:15.280Z,9.00
2023-04-27T01:21:45.572Z,9.00
2023-04-27T01:24:14.578Z,9.10
2023-04-27T01:26:42.241Z,9.10
2023-04-27T01:29:11.579Z,9.20
2023-04-27T01:31:39.575Z,9.20
2023-04-27T01:34:07.401Z,9.30
2023-04-27T01:36:35.145Z,9.30
2023-04-27T01:39:04.281Z,9.30
2023-04-27T01:41:33.298Z,9.20
2023-04-27T01:44:00.986Z,9.20
2023-04-27T01:46:30.035Z,9.20
2023-04-27T01:48:57.796Z,9.10
2023-04-27T01:51:25.574Z,9.10
2023-04-27T01:53:53.281Z,9.10
2023-04-27T01:56:21.122Z,9.10
2023-04-27T01:58:50.523Z,9.10
2023-04-27T02:01:18.240Z,9.10
2023-04-27T02:03:46.243Z,9.20
2023-04-27T02:06:14.049Z,9.10
2023-04-27T02:08:41.962Z,9.20
2023-04-27T02:11:10.043Z,9.20
2023-04-27T02:13:37.867Z,9.20
2023-04-27T02:16:07.755Z,9.30
2023-04-27T02:18:36.022Z,9.30
2023-04-27T02:21:09.575Z,9.30
2023-04-27T02:23:37.895Z,9.30
2023-04-27T02:26:05.888Z,9.30
2023-04-27T02:28:33.694Z,9.20
2023-04-27T02:31:01.965Z,9.30
2023-04-27T02:33:31.364Z,9.30
2023-04-27T02:35:59.038Z,9.40
2023-04-27T02:38:27.211Z,9.30
2023-04-27T02:40:55.737Z,9.30
2023-04-27T02:43:23.659Z,9.30
2023-04-27T02:45:51.892Z,9.40
2023-04-27T02:48:19.584Z,9.30
2023-04-27T02:50:48.729Z,9.30
2023-04-27T02:53:16.482Z,9.40
2023-04-27T02:55:48.043Z,9.30
2023-04-27T02:58:16.754Z,9.20
2023-04-27T03:00:45.284Z,9.10
2023-04-27T03:03:13.343Z,9.00
2023-04-27T03:05:41.187Z,9.00
2023-04-27T03:08:13.590Z,9.00
2023-04-27T03:10:43.174Z,8.90
2023-04-27T03:13:10.903Z,8.80
2023-04-27T03:15:38.756Z,8.80
2023-04-27T03:18:06.841Z,8.70
2023-04-27T03:20:34.979Z,8.70
2023-04-27T03:23:02.807Z,8.70
2023-04-27T03:25:31.996Z,8.70
2023-04-27T03:28:00.575Z,8.80
2023-04-27T03:30:28.235Z,8.80
2023-04-27T03:32:56.308Z,8.90
2023-04-27T03:35:23.995Z,8.90
2023-04-27T03:37:51.656Z,9.00
2023-04-27T03:40:19.527Z,9.00
2023-04-27T03:42:49.086Z,9.00
2023-04-27T03:45:19.083Z,9.10
2023-04-27T03:47:46.989Z,9.00
2023-04-27T03:50:16.178Z,9.00
2023-04-27T03:52:43.904Z,9.00
2023-04-27T03:55:11.745Z,9.00
2023-04-27T03:57:42.110Z,9.00
2023-04-27T04:00:12.834Z,9.00
2023-04-27T04:02:56.529Z,9.10
2023-04-27T04:05:24.597Z,9.10
2023-04-27T04:07:52.305Z,9.10
2023-04-27T04:30:21.530Z,8.80
2023-04-27T04:32:49.944Z,8.80
2023-04-27T04:35:20.751Z,8.70
2023-04-27T04:37:48.630Z,8.60
2023-04-27T04:40:22.139Z,8.60
2023-04-27T04:42:51.117Z,8.60
2023-04-27T04:45:20.339Z,8.60
2023-04-27T04:47:51.857Z,8.70
2023-04-27T04:50:19.827Z,8.70
2023-04-27T04:52:47.553Z,8.70
2023-04-27T04:55:15.763Z,8.80
2023-04-27T04:57:44.007Z,8.80
2023-04-27T05:00:14.574Z,8.80
2023-04-27T05:02:45.078Z,8.90
2023-04-27T05:05:16.939Z,8.90
2023-04-27T05:07:44.932Z,8.90
2023-04-27T05:10:13.387Z,8.80
2023-04-27T05:12:41.153Z,8.80
2023-04-27T05:15:12.659Z,8.80
2023-04-27T05:17:40.488Z,8.80
2023-04-27T05:20:10.549Z,8.80
2023-04-27T05:22:38.227Z,8.80
2023-04-27T05:25:06.953Z,8.80
2023-04-27T05:27:34.640Z,8.90
2023-04-27T05:30:02.331Z,8.90
2023-04-27T05:32:30.232Z,9.00
2023-04-27T05:34:58.096Z,9.10
2023-04-27T05:37:27.092Z,9.20
2023-04-27T05:39:54.771Z,9.30
2023-04-27T05:42:22.425Z,9.50
2023-04-27T05:44:50.273Z,9.70
2023-04-27T05:47:18.008Z,9.80
2023-04-27T05:49:45.869Z,9.90
2023-04-27T05:52:13.612Z,10.10
2023-04-27T05:54:47.738Z,10.30
2023-04-27T05:57:16.294Z,10.60
2023-04-27T05:59:44.263Z,10.90
2023-04-27T06:02:13.206Z,11.40
2023-04-27T06:04:41.536Z,12.00
2023-04-27T06:07:10.434Z,12.40
2023-04-27T06:09:38.323Z,12.80
2023-04-27T06:12:08.769Z,13.00
2023-04-27T06:14:40.879Z,13.10
2023-04-27T06:17:08.693Z,13.20
2023-04-27T06:19:37.687Z,13.30
2023-04-27T06:22:05.683Z,13.40
2023-04-27T06:24:36.378Z,13.60
2023-04-27T06:27:04.443Z,13.80
2023-04-27T06:29:33.585Z,14.10
2023-04-27T06:32:01.652Z,14.70
2023-04-27T06:34:29.522Z,15.30
2023-04-27T06:36:57.202Z,15.40
2023-04-27T06:39:24.853Z,15.90
2023-04-27T06:41:52.567Z,16.40
2023-04-27T06:44:20.229Z,16.60
2023-04-27T06:46:49.361Z,16.90
2023-04-27T06:49:17.022Z,17.00
2023-04-27T06:51:46.550Z,16.80
2023-04-27T06:54:14.505Z,17.30
2023-04-27T06:56:42.265Z,17.80
2023-04-27T06:59:10.048Z,17.60
2023-04-27T07:01:38.137Z,17.90
2023-04-27T07:04:07.728Z,18.20
2023-04-27T07:06:35.490Z,18.50
2023-04-27T07:09:13.181Z,18.70
2023-04-27T07:11:48.118Z,19.00
2023-04-27T07:14:15.845Z,19.40
2023-04-27T07:16:44.058Z,19.40
2023-04-27T07:19:13.233Z,19.70
2023-04-27T07:21:41.281Z,19.90
2023-04-27T07:24:09.308Z,20.10
2023-04-27T07:26:37.467Z,20.30
2023-04-27T07:29:14.422Z,20.60
2023-04-27T07:31:47.205Z,21.20
2023-04-27T07:34:16.233Z,21.80
2023-04-27T07:36:45.666Z,22.20
2023-04-27T07:39:13.520Z,22.80
2023-04-27T07:41:41.378Z,23.50
2023-04-27T07:44:09.209Z,24.20
2023-04-27T07:46:38.404Z,24.50
2023-04-27T07:49:06.077Z,24.80
2023-04-27T07:51:35.226Z,25.60
2023-04-27T07:54:04.141Z,26.40
2023-04-27T07:56:32.081Z,26.70
2023-04-27T07:58:59.769Z,27.50
2023-04-27T08:01:27.444Z,28.30
2023-04-27T08:03:55.430Z,29.00
2023-04-27T08:06:23.889Z,29.30
2023-04-27T08:08:53.390Z,29.40
2023-04-27T08:11:21.339Z,29.70
2023-04-27T08:13:48.999Z,29.40
2023-04-27T08:16:16.685Z,29.30
2023-04-27T08:18:45.265Z,29.70
2023-04-27T08:21:12.951Z,30.10
2023-04-27T08:23:42.116Z,30.70
2023-04-27T08:26:15.208Z,31.30
2023-04-27T08:28:46.020Z,31.70
2023-04-27T08:31:15.068Z,32.20
2023-04-27T08:33:42.763Z,32.70
2023-04-27T08:36:10.757Z,33.20
2023-04-27T08:38:41.770Z,33.80
2023-04-27T08:41:21.481Z,34.20
2023-04-27T08:43:59.121Z,34.50
2023-04-27T08:46:27.882Z,34.20
2023-04-27T08:48:57.415Z,33.80
2023-04-27T08:51:27.357Z,33.50
2023-04-27T08:53:59.781Z,33.50
2023-04-27T08:56:31.505Z,32.90
2023-04-27T08:59:04.035Z,32.90
2023-04-27T09:01:32.083Z,32.70
2023-04-27T09:04:02.371Z,32.90
2023-04-27T09:06:31.483Z,33.00
2023-04-27T09:08:59.795Z,33.20
2023-04-27T09:11:33.731Z,33.20
2023-04-27T09:14:03.014Z,33.20
2023-04-27T09:16:32.374Z,33.60
2023-04-27T09:19:03.330Z,33.90
2023-04-27T09:21:32.514Z,34.10
2023-04-27T09:24:12.250Z,34.20
2023-04-27T09:26:42.910Z,34.40
2023-04-27T09:29:10.824Z,34.80
2023-04-27T09:31:38.638Z,34.10
2023-04-27T09:34:06.814Z,34.00
2023-04-27T09:36:35.959Z,34.10
2023-04-27T09:39:05.294Z,33.80
2023-04-27T09:41:33.364Z,33.50
2023-04-27T09:44:03.505Z,33.20
2023-04-27T09:46:34.434Z,32.80
2023-04-27T09:49:05.130Z,32.10
2023-04-27T09:51:32.827Z,31.10
2023-04-27T09:54:03.868Z,30.30
2023-04-27T09:56:43.199Z,29.70
2023-04-27T09:59:34.336Z,29.00
2023-04-27T10:02:17.135Z,28.60
2023-04-27T10:05:22.333Z,28.20
2023-04-27T10:07:50.729Z,27.40
2023-04-27T10:10:19.199Z,26.70
2023-04-27T10:12:57.920Z,26.40
2023-04-27T10:15:29.673Z,26.70
2023-04-27T10:17:59.063Z,26.80
2023-04-27T10:20:31.305Z,26.90
2023-04-27T10:23:00.074Z,27.00
2023-04-27T10:25:29.218Z,27.30
2023-04-27T10:28:04.349Z,27.70
2023-04-27T10:30:36.583Z,28.90
2023-04-27T10:33:08.997Z,29.90
2023-04-27T10:35:40.109Z,30.60
2023-04-27T10:38:11.005Z,30.80
2023-04-27T10:40:39.324Z,31.10
2023-04-27T10:43:10.446Z,31.80
2023-04-27T10:45:44.460Z,32.20
2023-04-27T10:48:16.652Z,32.60
2023-04-27T10:50:46.722Z,32.90
2023-04-27T10:53:15.068Z,33.40
2023-04-27T10:55:45.851Z,32.50
2023-04-27T10:58:13.743Z,32.70
2023-04-27T11:00:44.688Z,33.90
2023-04-27T11:03:17.673Z,34.50
2023-04-27T11:05:47.127Z,33.10
2023-04-27T11:08:16.626Z,31.60
2023-04-27T11:10:46.365Z,31.40
2023-04-27T11:13:16.936Z,32.10
2023-04-27T11:15:50.960Z,33.00
2023-04-27T11:18:25.286Z,32.70
2023-04-27T11:21:09.403Z,33.50
2023-04-27T11:23:39.944Z,33.70
2023-04-27T11:26:11.640Z,34.20
2023-04-27T11:28:39.664Z,34.00
2023-04-27T11:31:08.919Z,33.80
2023-04-27T11:33:36.934Z,34.00
2023-04-27T11:36:05.014Z,34.00
2023-04-27T11:38:35.911Z,34.10
2023-04-27T11:41:06.636Z,34.10
2023-04-27T11:43:35.392Z,34.50
2023-04-27T11:46:04.767Z,33.90
2023-04-27T11:48:34.001Z,33.50
2023-04-27T11:51:01.737Z,33.10
2023-04-27T11:53:32.239Z,33.20
2023-04-27T11:56:02.068Z,33.40
2023-04-27T11:58:30.520Z,34.20
2023-04-27T12:00:58.863Z,35.00
2023-04-27T12:03:27.141Z,35.30
2023-04-27T12:05:56.811Z,35.80
2023-04-27T12:08:31.287Z,35.60
2023-04-27T12:10:59.042Z,34.70
2023-04-27T12:13:27.118Z,34.00
2023-04-27T12:15:56.108Z,33.80
2023-04-27T12:18:25.258Z,32.90
2023-04-27T12:20:53.106Z,31.60
2023-04-27T12:23:22.132Z,31.00
2023-04-27T12:25:51.046Z,30.20
2023-04-27T12:28:20.407Z,29.30
2023-04-27T12:30:49.857Z,28.60
2023-04-27T12:33:18.939Z,27.80
2023-04-27T12:35:47.795Z,27.00
2023-04-27T12:38:18.428Z,26.30
2023-04-27T12:40:49.694Z,25.70
2023-04-27T12:43:20.187Z,25.20
2023-04-27T12:45:50.881Z,24.80
2023-04-27T12:48:20.075Z,24.50
2023-04-27T12:50:47.835Z,24.20
2023-04-27T12:53:17.697Z,23.90
2023-04-27T12:55:48.232Z,23.30
2023-04-27T12:58:16.085Z,22.80
2023-04-27T13:00:45.158Z,22.90
2023-04-27T13:03:15.384Z,23.10
2023-04-27T13:05:46.031Z,22.80
2023-04-27T13:08:14.310Z,22.70
2023-04-27T13:10:46.138Z,22.80
2023-04-27T13:13:16.445Z,23.00
2023-04-27T13:15:44.398Z,23.10
2023-04-27T13:18:12.174Z,22.90
2023-04-27T13:20:39.989Z,22.90
2023-04-27T13:23:07.969Z,22.60
2023-04-27T13:25:35.902Z,22.50
2023-04-27T13:28:05.058Z,22.40
2023-04-27T13:30:34.085Z,22.40
2023-04-27T13:33:18.504Z,22.30
2023-04-27T13:35:52.898Z,22.20
2023-04-27T13:38:22.613Z,21.90
2023-04-27T13:40:52.772Z,21.80
2023-04-27T13:43:23.337Z,21.80
2023-04-27T13:45:54.368Z,21.80
2023-04-27T13:48:24.154Z,21.80
2023-04-27T13:50:52.230Z,21.70
2023-04-27T13:53:21.309Z,21.70
2023-04-27T13:55:49.099Z,21.70
2023-04-27T13:58:20.330Z,21.80
2023-04-27T14:00:48.909Z,21.90
2023-04-27T14:03:18.253Z,22.00
2023-04-27T14:05:48.216Z,21.90
2023-04-27T14:08:16.051Z,21.80
2023-04-27T14:10:45.419Z,21.70
2023-04-27T14:13:13.506Z,21.70
2023-04-27T14:15:41.333Z,21.50
2023-04-27T14:18:10.301Z,21.40
2023-04-27T14:20:41.840Z,21.30
2023-04-27T14:23:10.477Z,21.30
2023-04-27T14:25:39.091Z,21.40
2023-04-27T14:28:07.472Z,21.50
2023-04-27T14:30:36.028Z,21.50
2023-04-27T14:33:03.819Z,21.50
2023-04-27T14:35:31.672Z,21.50
2023-04-27T14:38:02.444Z,21.40
2023-04-27T14:40:30.343Z,21.50
2023-04-27T14:42:58.722Z,21.40
2023-04-27T14:45:33.536Z,21.60
2023-04-27T14:48:08.596Z,21.60
2023-04-27T14:50:40.774Z,21.70
2023-04-27T14:53:11.661Z,21.80
2023-04-27T14:55:45.188Z,21.60
2023-04-27T14:58:16.549Z,21.60
2023-04-27T15:00:48.039Z,21.50
2023-04-27T15:03:19.712Z,21.60
2023-04-27T15:05:47.632Z,21.60
2023-04-27T15:08:16.743Z,21.80
2023-04-27T15:10:46.823Z,21.90
2023-04-27T15:13:14.828Z,21.90
2023-04-27T15:15:45.346Z,22.00
2023-04-27T15:18:15.573Z,22.00
2023-04-27T15:20:44.643Z,22.00
2023-04-27T15:23:12.578Z,21.90
2023-04-27T15:25:44.970Z,21.90
2023-04-27T15:28:13.924Z,21.90
2023-04-27T15:30:41.621Z,21.80
2023-04-27T15:33:10.376Z,21.80
2023-04-27T15:35:41.201Z,21.80
2023-04-27T15:38:13.592Z,21.70
2023-04-27T15:40:43.488Z,21.60
2023-04-27T15:43:12.397Z,21.40
2023-04-27T15:45:41.575Z,21.40
2023-04-27T15:48:11.245Z,21.40
2023-04-27T15:50:41.186Z,21.30
2023-04-27T15:53:08.959Z,21.20
2023-04-27T15:55:36.735Z,21.20
2023-04-27T15:58:06.973Z,21.10
2023-04-27T16:00:35.669Z,21.00
2023-04-27T16:03:03.728Z,20.90
2023-04-27T16:05:31.783Z,20.90
2023-04-27T16:07:59.437Z,20.80
2023-04-27T16:10:27.195Z,20.70
2023-04-27T16:12:54.928Z,20.60
2023-04-27T16:15:24.066Z,20.50
2023-04-27T16:17:51.891Z,20.50
2023-04-27T16:20:19.639Z,20.40
2023-04-27T16:22:47.395Z,20.30
2023-04-27T16:25:15.048Z,20.50
2023-04-27T16:27:43.397Z,20.60
2023-04-27T16:30:11.314Z,20.50
2023-04-27T16:32:40.410Z,20.50
2023-04-27T16:35:08.652Z,20.40
2023-04-27T16:37:36.486Z,20.30
2023-04-27T16:40:06.762Z,20.20
2023-04-27T16:42:34.964Z,20.20
2023-04-27T16:45:03.046Z,20.10
2023-04-27T16:47:31.542Z,20.00
2023-04-27T16:50:00.745Z,19.90
2023-04-27T16:52:28.465Z,19.80
2023-04-27T16:54:56.419Z,19.80
2023-04-27T16:57:24.198Z,19.70
2023-04-27T16:59:52.010Z,19.60
2023-04-27T17:02:25.304Z,19.50
2023-04-27T17:04:53.950Z,19.40
2023-04-27T17:07:23.101Z,19.40
2023-04-27T17:09:50.798Z,19.30
2023-04-27T17:12:18.547Z,19.30
2023-04-27T17:14:46.282Z,19.30
2023-04-27T17:17:14.244Z,19.20
2023-04-27T17:19:42.234Z,19.20
2023-04-27T17:22:13.044Z,19.10
2023-04-27T17:24:42.141Z,19.00
2023-04-27T17:27:10.068Z,18.90
2023-04-27T17:29:38.927Z,18.80
2023-04-27T17:32:09.151Z,18.80
2023-04-27T17:34:37.162Z,18.80
2023-04-27T17:37:08.378Z,18.80
2023-04-27T17:39:36.134Z,18.80
2023-04-27T17:42:06.720Z,18.70
2023-04-27T17:44:35.155Z,18.70
2023-04-27T17:47:02.936Z,18.60
2023-04-27T17:49:31.409Z,18.30
2023-04-27T17:51:59.071Z,18.20
2023-04-27T17:54:29.872Z,18.00
2023-04-27T17:56:58.061Z,17.90
2023-04-27T17:59:28.768Z,17.80
2023-04-27T18:01:56.575Z,17.70
2023-04-27T18:04:24.401Z,17.70
2023-04-27T18:06:52.131Z,17.70
2023-04-27T18:09:19.843Z,17.70
2023-04-27T18:11:47.541Z,17.60
2023-04-27T18:14:15.410Z,17.60
2023-04-27T18:16:44.477Z,17.50
2023-04-27T18:19:12.499Z,17.40
2023-04-27T18:21:40.431Z,17.20
2023-04-27T18:24:10.063Z,17.10
2023-04-27T18:26:37.934Z,17.10
2023-04-27T18:29:06.427Z,17.00
2023-04-27T18:31:34.897Z,16.90
2023-04-27T18:34:03.918Z,16.80
2023-04-27T18:36:32.136Z,16.60
2023-04-27T18:38:59.909Z,16.50
2023-04-27T18:41:27.561Z,16.30
2023-04-27T18:43:55.370Z,16.30
2023-04-27T18:46:23.069Z,16.30
2023-04-27T18:48:50.793Z,16.10
2023-04-27T18:51:19.796Z,16.00
2023-04-27T18:53:47.466Z,15.90
2023-04-27T18:56:15.283Z,15.70
2023-04-27T18:58:43.015Z,15.70
2023-04-27T19:01:11.510Z,15.60
2023-04-27T19:03:40.557Z,15.60
2023-04-27T19:06:08.380Z,15.60
2023-04-27T19:08:37.450Z,15.50
2023-04-27T19:11:05.528Z,15.50
2023-04-27T19:13:33.434Z,15.50
2023-04-27T19:16:01.292Z,15.40
2023-04-27T19:18:29.286Z,15.30
2023-04-27T19:21:03.970Z,15.30
2023-04-27T19:23:33.191Z,15.20
2023-04-27T19:26:11.992Z,15.20
2023-04-27T19:28:41.372Z,15.10
2023-04-27T19:31:09.850Z,15.20
2023-04-27T19:33:37.654Z,15.20
2023-04-27T19:36:05.813Z,15.10
2023-04-27T19:38:33.847Z,15.10
2023-04-27T19:41:04.179Z,15.00
2023-04-27T19:43:34.319Z,15.00
2023-04-27T19:46:03.177Z,14.90
2023-04-27T19:48:35.698Z,14.90
2023-04-27T19:51:08.467Z,14.70
2023-04-27T19:53:36.191Z,14.70
2023-04-27T19:56:06.111Z,14.60
2023-04-27T19:58:35.707Z,14.50
2023-04-27T20:01:03.768Z,14.40
2023-04-27T20:03:33.089Z,14.40
2023-04-27T20:06:02.377Z,14.40
2023-04-27T20:08:30.456Z,14.40
2023-04-27T20:10:59.452Z,14.30
2023-04-27T20:13:28.462Z,14.40
2023-04-27T20:15:57.620Z,14.30
2023-04-27T20:18:26.891Z,14.30
2023-04-27T20:20:54.875Z,14.20
2023-04-27T20:23:22.566Z,14.10
2023-04-27T20:25:53.096Z,14.10
2023-04-27T20:28:20.780Z,14.10
2023-04-27T20:30:49.789Z,14.00
2023-04-27T20:33:17.563Z,14.10
2023-04-27T20:35:46.612Z,14.10
2023-04-27T20:38:16.945Z,14.10
2023-04-27T20:40:45.695Z,14.10
2023-04-27T20:43:15.735Z,14.10
2023-04-27T20:45:44.721Z,14.10
2023-04-27T20:48:14.953Z,14.00
2023-04-27T20:50:42.921Z,14.00
2023-04-27T20:53:10.648Z,13.90
2023-04-27T20:55:38.605Z,13.90
2023-04-27T20:58:06.415Z,13.90
2023-04-27T21:00:34.165Z,13.80
2023-04-27T21:03:01.916Z,13.80
2023-04-27T21:05:31.695Z,13.70
2023-04-27T21:07:59.576Z,13.80
2023-04-27T21:10:27.369Z,13.70
2023-04-27T21:12:55.096Z,13.70
2023-04-27T21:15:23.286Z,13.80
2023-04-27T21:17:50.994Z,13.80
2023-04-27T21:20:18.776Z,13.80
2023-04-27T21:22:47.779Z,13.80
2023-04-27T21:25:15.580Z,13.80
2023-04-27T21:27:43.368Z,13.80
2023-04-27T21:30:12.080Z,13.80
2023-04-27T21:32:39.788Z,13.80
2023-04-27T21:35:08.336Z,13.80
2023-04-27T21:37:37.760Z,13.80
2023-04-27T21:40:07.803Z,13.70
2023-04-27T21:42:36.081Z,13.70
2023-04-27T21:45:04.393Z,13.70
2023-04-27T21:47:32.130Z,13.60
2023-04-27T21:49:59.850Z,13.50
2023-04-27T21:52:27.506Z,13.50
2023-04-27T21:54:55.260Z,13.50
2023-04-27T21:57:24.267Z,13.60
2023-04-27T21:59:52.106Z,13.60
2023-04-27T22:02:19.845Z,13.50
2023-04-27T22:04:48.987Z,13.40
2023-04-27T22:07:16.797Z,13.30
2023-04-27T22:09:44.604Z,13.20
2023-04-27T22:12:12.319Z,13.10
2023-04-27T22:14:42.683Z,13.00
2023-04-27T22:17:12.350Z,12.90
2023-04-27T22:19:40.466Z,12.90
2023-04-27T22:22:08.284Z,12.90
2023-04-27T22:24:36.066Z,12.90
2023-04-27T22:27:04.640Z,12.80
2023-04-27T22:29:33.347Z,12.90
2023-04-27T22:32:02.900Z,13.00
2023-04-27T22:34:31.025Z,13.10
2023-04-27T22:36:59.128Z,13.20
2023-04-27T22:39:26.893Z,13.20
2023-04-27T22:41:54.584Z,13.30
2023-04-27T22:44:22.346Z,13.40
2023-04-27T22:46:53.017Z,13.40
2023-04-27T22:49:22.092Z,13.50
2023-04-27T22:51:50.168Z,13.50
2023-04-27T22:54:18.167Z,13.50
2023-04-27T22:56:46.169Z,13.50
2023-04-27T22:59:14.249Z,13.40
2023-04-27T23:01:41.909Z,13.30
2023-04-27T23:04:09.709Z,13.30
2023-04-27T23:06:39.026Z,13.30
2023-04-27T23:09:07.046Z,13.40
2023-04-27T23:11:34.922Z,13.50
2023-04-27T23:14:03.499Z,13.60
2023-04-27T23:16:31.960Z,13.70
2023-04-27T23:18:59.733Z,13.80
2023-04-27T23:21:28.047Z,13.90
2023-04-27T23:23:58.570Z,13.90
2023-04-27T23:26:27.734Z,13.90
2023-04-27T23:28:55.459Z,13.80
2023-04-27T23:31:23.928Z,13.80
2023-04-27T23:33:52.099Z,13.80
2023-04-27T23:36:19.897Z,13.70
2023-04-27T23:38:47.660Z,13.70
2023-04-27T23:41:16.674Z,13.70
2023-04-27T23:43:44.599Z,13.70
2023-04-27T23:46:12.519Z,13.70
2023-04-27T23:48:40.290Z,13.60
2023-04-27T23:51:07.980Z,13.60
2023-04-27T23:53:35.742Z,13.50
2023-04-27T23:56:03.460Z,13.50
2023-04-27T23:58:32.505Z,13.60
